createdAt,value
2023-02-14T00:02:06.785Z,102148.13
2023-02-14T00:04:38.518Z,102148.13
2023-02-14T00:07:06.741Z,102149.94
2023-02-14T00:09:34.973Z,102147.75
2023-02-14T00:12:03.805Z,102152.28
2023-02-14T00:14:51.188Z,102156.75
2023-02-14T00:17:19.474Z,102163.19
2023-02-14T00:19:47.716Z,102164.25
2023-02-14T00:22:15.973Z,102167.00
2023-02-14T00:24:44.209Z,102176.13
2023-02-14T00:27:12.523Z,102177.06
2023-02-14T00:29:42.168Z,102166.81
2023-02-14T00:32:10.448Z,102170.41
2023-02-14T00:34:38.757Z,102167.03
2023-02-14T00:37:06.936Z,102168.13
2023-02-14T00:39:35.464Z,102170.97
2023-02-14T00:42:03.668Z,102169.38
2023-02-14T00:44:31.835Z,102175.31
2023-02-14T00:47:01.409Z,102175.53
2023-02-14T00:49:30.020Z,102172.88
2023-02-14T00:51:59.108Z,102166.84
2023-02-14T00:54:27.928Z,102169.50
2023-02-14T00:56:56.158Z,102172.13
2023-02-14T00:59:24.686Z,102168.00
2023-02-14T01:01:53.060Z,102168.84
2023-02-14T01:04:22.856Z,102163.91
2023-02-14T01:06:51.101Z,102169.09
2023-02-14T01:09:19.492Z,102171.00
2023-02-14T01:11:48.841Z,102168.56
2023-02-14T01:14:17.145Z,102172.16
2023-02-14T01:16:45.506Z,102164.53
2023-02-14T01:19:14.329Z,102176.06
2023-02-14T01:21:44.067Z,102163.06
2023-02-14T01:24:13.617Z,102171.00
2023-02-14T01:26:42.310Z,102175.44
2023-02-14T01:29:10.664Z,102173.75
2023-02-14T01:31:39.602Z,102180.09
2023-02-14T01:34:08.057Z,102176.69
2023-02-14T01:36:38.606Z,102177.75
2023-02-14T01:39:11.733Z,102176.19
2023-02-14T01:41:41.573Z,102185.78
2023-02-14T01:44:48.722Z,102178.00
2023-02-14T01:47:18.196Z,102182.44
2023-02-14T01:49:51.074Z,102182.81
2023-02-14T01:52:23.901Z,102181.88
2023-02-14T01:54:57.701Z,102184.63
2023-02-14T01:57:30.430Z,102181.13
2023-02-14T02:00:20.936Z,102178.59
2023-02-14T02:02:49.225Z,102178.81
2023-02-14T02:05:23.728Z,102186.00
2023-02-14T02:07:53.004Z,102186.22
2023-02-14T02:10:22.926Z,102179.34
2023-02-14T02:12:52.920Z,102179.25
2023-02-14T02:15:24.986Z,102175.84
2023-02-14T02:18:03.572Z,102183.88
2023-02-14T02:21:15.929Z,102184.81
2023-02-14T02:24:09.945Z,102188.31
2023-02-14T02:27:13.615Z,102183.22
2023-02-14T02:30:15.314Z,102199.06
2023-02-14T02:33:28.245Z,102194.03
2023-02-14T02:36:15.463Z,102188.00
2023-02-14T02:39:01.882Z,102202.03
2023-02-14T02:41:53.605Z,102199.59
2023-02-14T02:44:30.990Z,102196.22
2023-02-14T02:47:06.383Z,102201.69
2023-02-14T02:50:00.922Z,102199.19
2023-02-14T02:52:57.258Z,102203.72
2023-02-14T02:55:53.031Z,102196.09
2023-02-14T02:58:22.722Z,102199.78
2023-02-14T03:00:53.394Z,102188.69
2023-02-14T03:03:41.883Z,102194.81
2023-02-14T03:06:10.173Z,102196.81
2023-02-14T03:08:39.862Z,102187.19
2023-02-14T03:11:08.347Z,102195.22
2023-02-14T03:13:52.453Z,102190.13
2023-02-14T03:16:35.677Z,102195.59
2023-02-14T03:19:47.232Z,102194.66
2023-02-14T03:22:23.176Z,102192.16
2023-02-14T03:24:57.851Z,102189.59
2023-02-14T03:27:31.840Z,102193.19
2023-02-14T03:30:14.955Z,102189.81
2023-02-14T03:32:47.770Z,102188.84
2023-02-14T03:35:22.618Z,102190.66
2023-02-14T03:37:57.044Z,102183.78
2023-02-14T03:40:29.700Z,102190.75
2023-02-14T03:43:01.982Z,102183.88
2023-02-14T03:45:33.673Z,102189.16
2023-02-14T03:48:07.037Z,102186.50
2023-02-14T03:50:39.135Z,102190.09
2023-02-14T03:53:12.253Z,102187.56
2023-02-14T03:55:45.586Z,102185.84
2023-02-14T03:58:22.825Z,102190.41
2023-02-14T04:00:54.173Z,102196.41
2023-02-14T04:03:24.987Z,102196.53
2023-02-14T04:05:53.455Z,102195.78
2023-02-14T04:08:26.183Z,102198.53
2023-02-14T04:10:58.093Z,102204.00
2023-02-14T04:13:27.134Z,102204.28
2023-02-14T04:15:55.775Z,102208.84
2023-02-14T04:18:41.870Z,102215.06
2023-02-14T04:21:10.325Z,102207.34
2023-02-14T04:23:38.676Z,102210.91
2023-02-14T04:26:08.401Z,102211.09
2023-02-14T04:28:36.916Z,102202.44
2023-02-14T04:31:07.313Z,102213.94
2023-02-14T04:33:36.203Z,102199.19
2023-02-14T04:36:04.738Z,102202.63
2023-02-14T04:38:34.039Z,102206.25
2023-02-14T04:41:02.555Z,102196.63
2023-02-14T04:43:32.368Z,102206.34
2023-02-14T04:46:00.602Z,102195.78
2023-02-14T04:48:29.084Z,102185.34
2023-02-14T04:50:58.014Z,102192.50
2023-02-14T04:53:27.220Z,102190.97
2023-02-14T04:55:55.599Z,102202.56
2023-02-14T04:58:24.042Z,102212.25
2023-02-14T05:00:53.983Z,102209.84
2023-02-14T05:03:22.478Z,102205.59
2023-02-14T05:05:50.671Z,102200.53
2023-02-14T05:08:18.975Z,102203.34
2023-02-14T05:10:47.680Z,102200.16
2023-02-14T05:13:15.890Z,102206.38
2023-02-14T05:15:46.220Z,102208.19
2023-02-14T05:18:15.928Z,102211.09
2023-02-14T05:20:44.314Z,102212.25
2023-02-14T05:23:13.866Z,102217.69
2023-02-14T05:25:42.560Z,102213.47
2023-02-14T05:28:10.980Z,102216.19
2023-02-14T05:30:39.405Z,102207.63
2023-02-14T05:33:08.195Z,102220.03
2023-02-14T05:35:38.075Z,102223.50
2023-02-14T05:38:07.203Z,102222.66
2023-02-14T05:40:35.617Z,102221.09
2023-02-14T05:43:03.869Z,102218.47
2023-02-14T05:45:32.264Z,102222.13
2023-02-14T05:48:00.548Z,102225.88
2023-02-14T05:50:30.555Z,102230.28
2023-02-14T05:53:02.082Z,102229.63
2023-02-14T05:55:30.409Z,102229.53
2023-02-14T05:57:58.739Z,102230.28
2023-02-14T06:00:27.744Z,102223.41
2023-02-14T06:02:56.031Z,102226.91
2023-02-14T06:05:24.455Z,102228.06
2023-02-14T06:07:52.810Z,102227.97
2023-02-14T06:10:24.058Z,102228.31
2023-02-14T06:12:54.486Z,102223.72
2023-02-14T06:15:23.124Z,102226.44
2023-02-14T06:17:55.583Z,102224.00
2023-02-14T06:20:25.453Z,102223.16
2023-02-14T06:22:53.877Z,102225.03
2023-02-14T06:25:25.131Z,102231.22
2023-02-14T06:27:56.589Z,102232.38
2023-02-14T06:30:25.649Z,102227.72
2023-02-14T06:32:54.128Z,102231.59
2023-02-14T06:35:22.565Z,102235.41
2023-02-14T06:37:50.813Z,102229.50
2023-02-14T06:40:19.798Z,102238.06
2023-02-14T06:42:49.438Z,102234.47
2023-02-14T06:45:17.776Z,102236.25
2023-02-14T06:47:47.073Z,102230.31
2023-02-14T06:50:15.509Z,102231.19
2023-02-14T06:52:44.738Z,102232.03
2023-02-14T06:55:13.981Z,102223.09
2023-02-14T06:57:42.429Z,102227.34
2023-02-14T07:00:14.975Z,102226.50
2023-02-14T07:02:43.797Z,102222.84
2023-02-14T07:05:12.144Z,102219.53
2023-02-14T07:07:43.193Z,102231.41
2023-02-14T07:10:12.035Z,102228.41
2023-02-14T07:12:40.546Z,102231.31
2023-02-14T07:15:09.687Z,102236.81
2023-02-14T07:17:39.717Z,102234.63
2023-02-14T07:20:10.507Z,102231.81
2023-02-14T07:22:40.655Z,102240.25
2023-02-14T07:25:10.126Z,102240.94
2023-02-14T07:27:38.358Z,102234.13
2023-02-14T07:30:08.235Z,102233.59
2023-02-14T07:32:38.136Z,102237.53
2023-02-14T07:35:09.169Z,102236.41
2023-02-14T07:37:37.720Z,102247.38
2023-02-14T07:40:14.373Z,102251.53
2023-02-14T07:42:43.590Z,102249.56
2023-02-14T07:45:21.862Z,102246.50
2023-02-14T07:47:51.745Z,102253.19
2023-02-14T07:50:22.531Z,102252.16
2023-02-14T07:52:51.628Z,102261.59
2023-02-14T07:55:20.569Z,102263.91
2023-02-14T07:57:50.144Z,102265.41
2023-02-14T08:00:19.608Z,102263.22
2023-02-14T08:02:49.189Z,102269.91
2023-02-14T08:05:18.788Z,102260.63
2023-02-14T08:07:48.592Z,102262.13
2023-02-14T08:10:18.172Z,102264.47
2023-02-14T08:13:01.599Z,102271.97
2023-02-14T08:15:49.244Z,102272.44
2023-02-14T08:18:18.847Z,102283.34
2023-02-14T08:20:48.916Z,102278.28
2023-02-14T08:23:19.630Z,102286.66
2023-02-14T08:25:49.018Z,102286.13
2023-02-14T08:28:17.340Z,102274.44
2023-02-14T08:30:46.034Z,102280.03
2023-02-14T08:33:14.424Z,102282.47
2023-02-14T08:35:42.802Z,102275.19
2023-02-14T08:38:11.079Z,102273.31
2023-02-14T08:40:41.760Z,102282.50
2023-02-14T08:43:11.053Z,102289.25
2023-02-14T08:45:39.820Z,102290.44
2023-02-14T08:48:10.102Z,102292.66
2023-02-14T08:50:39.639Z,102292.34
2023-02-14T08:53:09.874Z,102284.94
2023-02-14T08:55:38.872Z,102290.66
2023-02-14T08:58:09.253Z,102300.91
2023-02-14T09:00:37.700Z,102295.31
2023-02-14T09:03:06.157Z,102283.47
2023-02-14T09:05:35.516Z,102285.75
2023-02-14T09:08:03.817Z,102290.53
2023-02-14T09:10:32.458Z,102294.72
2023-02-14T09:13:00.726Z,102290.44
2023-02-14T09:15:30.620Z,102297.91
2023-02-14T09:17:58.936Z,102299.06
2023-02-14T09:20:27.526Z,102298.63
2023-02-14T09:22:57.269Z,102300.84
2023-02-14T09:25:25.563Z,102301.78
2023-02-14T09:27:53.835Z,102293.91
2023-02-14T09:30:22.254Z,102299.47
2023-02-14T09:32:53.166Z,102298.03
2023-02-14T09:35:21.518Z,102297.66
2023-02-14T09:37:49.909Z,102299.16
2023-02-14T09:40:20.929Z,102298.94
2023-02-14T09:43:02.110Z,102304.38
2023-02-14T09:45:33.641Z,102299.47
2023-02-14T09:48:08.108Z,102295.28
2023-02-14T09:50:44.033Z,102295.59
2023-02-14T09:53:21.595Z,102295.94
2023-02-14T09:55:56.873Z,102295.06
2023-02-14T09:58:32.621Z,102296.78
2023-02-14T10:01:09.793Z,102296.44
2023-02-14T10:03:53.039Z,102298.25
2023-02-14T10:06:39.498Z,102287.97
2023-02-14T10:09:15.848Z,102290.19
2023-02-14T10:11:47.567Z,102290.09
2023-02-14T10:14:19.465Z,102293.56
2023-02-14T10:16:52.024Z,102297.06
2023-02-14T10:19:27.144Z,102305.22
2023-02-14T10:21:58.029Z,102294.75
2023-02-14T10:24:31.317Z,102314.34
2023-02-14T10:27:11.118Z,102301.91
2023-02-14T10:29:39.410Z,102310.06
2023-02-14T10:32:15.925Z,102303.84
2023-02-14T10:34:49.624Z,102309.94
2023-02-14T10:37:31.845Z,102315.53
2023-02-14T10:40:28.882Z,102313.84
2023-02-14T10:43:02.243Z,102312.25
2023-02-14T10:45:43.576Z,102319.25
2023-02-14T10:48:23.408Z,102315.13
2023-02-14T10:51:00.749Z,102316.47
2023-02-14T10:53:40.296Z,102310.00
2023-02-14T10:56:18.695Z,102321.25
2023-02-14T10:58:50.105Z,102317.88
2023-02-14T11:01:20.195Z,102319.56
2023-02-14T11:03:56.476Z,102315.97
2023-02-14T11:06:26.388Z,102319.56
2023-02-14T11:08:56.335Z,102322.84
2023-02-14T11:11:31.625Z,102327.03
2023-02-14T11:14:22.769Z,102329.69
2023-02-14T11:16:53.033Z,102317.66
2023-02-14T11:19:27.483Z,102311.28
2023-02-14T11:21:59.398Z,102320.41
2023-02-14T11:24:31.000Z,102317.03
2023-02-14T11:27:03.148Z,102331.75
2023-02-14T11:29:34.245Z,102330.28
2023-02-14T11:32:10.020Z,102334.19
2023-02-14T11:34:40.602Z,102326.69
2023-02-14T11:37:27.046Z,102330.50
2023-02-14T11:39:56.866Z,102326.28
2023-02-14T11:42:39.076Z,102329.03
2023-02-14T11:45:08.932Z,102320.13
2023-02-14T11:47:41.567Z,102324.06
2023-02-14T11:50:24.878Z,102312.94
2023-02-14T11:52:56.958Z,102310.94
2023-02-14T11:55:28.811Z,102312.00
2023-02-14T11:57:57.983Z,102303.31
2023-02-14T12:00:27.957Z,102306.06
2023-02-14T12:02:58.117Z,102301.22
2023-02-14T12:05:30.550Z,102310.22
2023-02-14T12:08:03.022Z,102306.41
2023-02-14T12:10:32.358Z,102303.31
2023-02-14T12:13:02.870Z,102302.06
2023-02-14T12:15:40.907Z,102287.66
2023-02-14T12:18:38.315Z,102293.41
2023-02-14T12:21:22.113Z,102293.19
2023-02-14T12:24:01.798Z,102294.75
2023-02-14T12:26:35.591Z,102295.59
2023-02-14T12:29:14.411Z,102289.78
2023-02-14T12:31:43.532Z,102285.34
2023-02-14T12:34:13.304Z,102293.28
2023-02-14T12:37:07.444Z,102288.84
2023-02-14T12:39:43.762Z,102295.47
2023-02-14T12:42:25.377Z,102288.06
2023-02-14T12:45:04.173Z,102288.25
2023-02-14T12:47:41.914Z,102284.75
2023-02-14T12:50:38.940Z,102280.31
2023-02-14T12:53:40.421Z,102277.88
2023-02-14T12:56:15.489Z,102277.19
2023-02-14T12:59:01.822Z,102272.94
2023-02-14T13:01:58.556Z,102275.13
2023-02-14T13:04:57.297Z,102272.06
2023-02-14T13:07:39.710Z,102266.31
2023-02-14T13:10:17.427Z,102267.78
2023-02-14T13:12:53.919Z,102255.94
2023-02-14T13:15:33.437Z,102258.13
2023-02-14T13:18:10.053Z,102243.94
2023-02-14T13:20:49.954Z,102252.81
2023-02-14T13:23:24.078Z,102246.47
2023-02-14T13:25:57.728Z,102246.34
2023-02-14T13:28:28.916Z,102241.44
2023-02-14T13:31:00.151Z,102244.09
2023-02-14T13:33:35.209Z,102237.94
2023-02-14T13:36:07.945Z,102244.72
2023-02-14T13:38:44.945Z,102237.28
2023-02-14T13:41:15.645Z,102233.78
2023-02-14T13:43:52.895Z,102238.13
2023-02-14T13:46:52.445Z,102228.88
2023-02-14T13:49:34.770Z,102232.16
2023-02-14T13:52:08.287Z,102223.25
2023-02-14T13:54:44.105Z,102214.22
2023-02-14T13:57:31.681Z,102223.41
2023-02-14T14:00:42.861Z,102219.69
2023-02-14T14:03:16.771Z,102215.97
2023-02-14T14:05:58.808Z,102211.97
2023-02-14T14:08:56.788Z,102211.66
2023-02-14T14:11:59.070Z,102220.22
2023-02-14T14:14:36.513Z,102209.72
2023-02-14T14:17:21.128Z,102215.53
2023-02-14T14:19:51.108Z,102216.00
2023-02-14T14:22:22.093Z,102213.00
2023-02-14T14:25:01.796Z,102218.78
2023-02-14T14:27:34.622Z,102218.78
2023-02-14T14:30:06.316Z,102216.03
2023-02-14T14:32:36.779Z,102218.56
2023-02-14T14:35:08.687Z,102218.56
2023-02-14T14:37:46.624Z,102206.03
2023-02-14T14:40:25.104Z,102200.13
2023-02-14T14:43:01.984Z,102200.63
2023-02-14T14:45:31.972Z,102197.13
2023-02-14T14:48:04.471Z,102190.63
2023-02-14T14:50:40.022Z,102194.88
2023-02-14T14:53:11.267Z,102191.38
2023-02-14T14:55:41.697Z,102192.22
2023-02-14T14:58:34.591Z,102192.91
2023-02-14T15:01:03.954Z,102190.53
2023-02-14T15:03:32.923Z,102183.28
2023-02-14T15:06:11.533Z,102184.72
2023-02-14T15:08:39.842Z,102180.03
2023-02-14T15:11:10.845Z,102178.34
2023-02-14T15:13:53.937Z,102172.09
2023-02-14T15:16:25.152Z,102180.53
2023-02-14T15:18:56.914Z,102176.66
2023-02-14T15:21:27.036Z,102180.75
2023-02-14T15:23:55.489Z,102170.66
2023-02-14T15:26:28.733Z,102164.97
2023-02-14T15:29:17.993Z,102161.94
2023-02-14T15:31:47.270Z,102154.59
2023-02-14T15:34:15.917Z,102153.75
2023-02-14T15:36:49.168Z,102155.44
2023-02-14T15:39:18.365Z,102152.53
2023-02-14T15:41:47.367Z,102150.59
2023-02-14T15:44:21.374Z,102151.94
2023-02-14T15:46:52.830Z,102150.00
2023-02-14T15:49:23.937Z,102149.84
2023-02-14T15:51:56.401Z,102140.22
2023-02-14T15:54:33.434Z,102127.44
2023-02-14T15:57:02.625Z,102129.25
2023-02-14T15:59:34.175Z,102125.16
2023-02-14T16:02:06.312Z,102123.34
2023-02-14T16:04:36.982Z,102121.53
2023-02-14T16:07:22.614Z,102116.47
2023-02-14T16:09:51.870Z,102119.28
2023-02-14T16:12:33.154Z,102116.75
2023-02-14T16:15:17.605Z,102118.44
2023-02-14T16:17:46.187Z,102115.50
2023-02-14T16:20:23.584Z,102118.75
2023-02-14T16:22:53.384Z,102112.63
2023-02-14T16:25:21.840Z,102107.69
2023-02-14T16:27:50.052Z,102109.34
2023-02-14T16:30:19.978Z,102104.06
2023-02-14T16:32:53.782Z,102105.75
2023-02-14T16:35:23.123Z,102106.47
2023-02-14T16:37:53.863Z,102104.78
2023-02-14T16:40:26.797Z,102102.84
2023-02-14T16:42:56.517Z,102099.09
2023-02-14T16:45:25.773Z,102110.31
2023-02-14T16:47:57.616Z,102107.41
2023-02-14T16:50:26.868Z,102109.25
2023-02-14T16:52:59.207Z,102109.47
2023-02-14T16:55:33.123Z,102109.72
2023-02-14T16:58:03.830Z,102105.13
2023-02-14T17:00:32.111Z,102106.09
2023-02-14T17:03:06.360Z,102098.88
2023-02-14T17:05:36.864Z,102097.06
2023-02-14T17:08:08.875Z,102107.91
2023-02-14T17:10:37.468Z,102103.69
2023-02-14T17:13:07.157Z,102109.00
2023-02-14T17:15:36.117Z,102104.66
2023-02-14T17:18:10.183Z,102108.88
2023-02-14T17:20:38.829Z,102110.81
2023-02-14T17:23:09.093Z,102114.31
2023-02-14T17:25:38.806Z,102116.09
2023-02-14T17:28:07.049Z,102119.00
2023-02-14T17:30:35.363Z,102101.56
2023-02-14T17:33:03.658Z,102110.19
2023-02-14T17:35:32.308Z,102101.66
2023-02-14T17:38:00.603Z,102105.16
2023-02-14T17:40:31.417Z,102103.34
2023-02-14T17:42:59.765Z,102096.94
2023-02-14T17:45:28.278Z,102099.34
2023-02-14T17:47:56.579Z,102094.88
2023-02-14T17:50:24.846Z,102092.13
2023-02-14T17:52:56.508Z,102094.53
2023-02-14T17:55:25.204Z,102090.91
2023-02-14T17:57:55.250Z,102087.28
2023-02-14T18:00:24.421Z,102093.44
2023-02-14T18:02:52.695Z,102094.00
2023-02-14T18:05:20.910Z,102086.06
2023-02-14T18:07:49.289Z,102088.59
2023-02-14T18:10:17.573Z,102080.88
2023-02-14T18:12:45.754Z,102083.78
2023-02-14T18:15:15.357Z,102085.13
2023-02-14T18:17:43.782Z,102087.91
2023-02-14T18:20:12.729Z,102081.88
2023-02-14T18:22:40.910Z,102082.13
2023-02-14T18:25:09.536Z,102084.78
2023-02-14T18:27:39.422Z,102083.09
2023-02-14T18:30:09.339Z,102078.03
2023-02-14T18:32:39.319Z,102067.78
2023-02-14T18:35:08.956Z,102075.63
2023-02-14T18:37:37.410Z,102073.34
2023-02-14T18:40:07.269Z,102069.72
2023-02-14T18:42:35.854Z,102069.88
2023-02-14T18:45:04.050Z,102063.84
2023-02-14T18:47:32.457Z,102065.06
2023-02-14T18:50:02.103Z,102055.19
2023-02-14T18:52:30.699Z,102062.53
2023-02-14T18:54:59.501Z,102070.72
2023-02-14T18:57:27.782Z,102065.44
2023-02-14T18:59:55.989Z,102058.31
2023-02-14T19:02:24.237Z,102067.34
2023-02-14T19:04:52.574Z,102053.38
2023-02-14T19:07:22.213Z,102076.28
2023-02-14T19:09:50.429Z,102058.69
2023-02-14T19:12:18.623Z,102063.13
2023-02-14T19:14:46.865Z,102059.41
2023-02-14T19:17:15.195Z,102057.34
2023-02-14T19:19:43.633Z,102059.16
2023-02-14T19:22:12.343Z,102054.81
2023-02-14T19:24:42.211Z,102056.63
2023-02-14T19:27:10.521Z,102063.75
2023-02-14T19:29:39.049Z,102055.91
2023-02-14T19:32:07.536Z,102057.47
2023-02-14T19:34:36.442Z,102048.91
2023-02-14T19:37:04.716Z,102050.72
2023-02-14T19:39:33.081Z,102058.09
2023-02-14T19:42:04.154Z,102061.72
2023-02-14T19:44:32.730Z,102047.75
2023-02-14T19:47:07.644Z,102054.00
2023-02-14T19:49:41.284Z,102066.41
2023-02-14T19:52:25.726Z,102059.41
2023-02-14T19:54:59.434Z,102056.03
2023-02-14T19:57:29.137Z,102053.50
2023-02-14T19:59:57.367Z,102050.88
2023-02-14T20:02:25.647Z,102050.88
2023-02-14T20:04:58.973Z,102045.72
2023-02-14T20:07:27.376Z,102043.19
2023-02-14T20:09:56.468Z,102037.88
2023-02-14T20:12:24.973Z,102038.84
2023-02-14T20:14:56.629Z,102035.34
2023-02-14T20:17:25.649Z,102027.50
2023-02-14T20:19:54.042Z,102030.41
2023-02-14T20:22:23.257Z,102028.00
2023-02-14T20:24:51.506Z,102028.00
2023-02-14T20:27:20.085Z,102026.31
2023-02-14T20:29:48.503Z,102024.63
2023-02-14T20:32:20.182Z,102028.94
2023-02-14T20:34:49.084Z,102033.28
2023-02-14T20:37:17.441Z,102035.22
2023-02-14T20:39:45.722Z,102037.84
2023-02-14T20:42:14.020Z,102037.63
2023-02-14T20:44:42.797Z,102037.38
2023-02-14T20:47:11.541Z,102032.09
2023-02-14T20:49:44.803Z,102031.97
2023-02-14T20:52:13.833Z,102029.44
2023-02-14T20:54:43.069Z,102031.38
2023-02-14T20:57:11.298Z,102030.63
2023-02-14T20:59:44.742Z,102025.47
2023-02-14T21:02:13.337Z,102032.31
2023-02-14T21:04:42.985Z,102024.38
2023-02-14T21:07:11.583Z,102012.09
2023-02-14T21:09:39.878Z,102022.56
2023-02-14T21:12:08.864Z,102014.63
2023-02-14T21:14:37.200Z,102018.97
2023-02-14T21:17:05.869Z,102008.47
2023-02-14T21:19:34.398Z,102006.56
2023-02-14T21:22:04.488Z,102006.66
2023-02-14T21:24:32.768Z,102000.66
2023-02-14T21:27:01.803Z,102002.59
2023-02-14T21:29:30.083Z,101996.47
2023-02-14T21:31:58.453Z,102003.41
2023-02-14T21:34:27.956Z,101993.09
2023-02-14T21:36:56.406Z,101992.34
2023-02-14T21:39:27.915Z,101990.78
2023-02-14T21:41:56.581Z,101991.88
2023-02-14T21:44:39.727Z,101993.78
2023-02-14T21:47:07.913Z,101989.47
2023-02-14T21:49:53.890Z,101985.16
2023-02-14T21:52:22.393Z,101982.50
2023-02-14T21:54:53.938Z,101986.56
2023-02-14T21:57:22.206Z,101984.78
2023-02-14T21:59:50.459Z,101988.03
2023-02-14T22:02:18.767Z,101987.06
2023-02-14T22:04:47.218Z,101991.53
2023-02-14T22:07:15.435Z,101991.53
2023-02-14T22:09:43.640Z,101988.03
2023-02-14T22:12:13.584Z,101980.44
2023-02-14T22:14:41.828Z,101980.44
2023-02-14T22:17:10.157Z,101980.69
2023-02-14T22:19:38.479Z,101981.06
2023-02-14T22:22:06.804Z,101972.38
2023-02-14T22:24:34.999Z,101973.34
2023-02-14T22:27:03.266Z,101972.63
2023-02-14T22:29:32.877Z,101976.09
2023-02-14T22:32:01.157Z,101970.69
2023-02-14T22:34:29.615Z,101969.72
2023-02-14T22:36:58.069Z,101963.00
2023-02-14T22:39:26.302Z,101963.84
2023-02-14T22:41:54.616Z,101967.31
2023-02-14T22:44:22.900Z,101960.34
2023-02-14T22:46:52.580Z,101962.75
2023-02-14T22:49:20.889Z,101968.88
2023-02-14T22:51:50.317Z,101966.13
2023-02-14T22:54:18.668Z,101965.88
2023-02-14T22:56:48.792Z,101970.22
2023-02-14T22:59:18.832Z,101970.22
2023-02-14T23:01:47.678Z,101963.25
2023-02-14T23:04:21.710Z,101962.41
2023-02-14T23:06:50.510Z,101964.94
2023-02-14T23:09:18.986Z,101970.09
2023-02-14T23:11:48.700Z,101954.06
2023-02-14T23:14:35.543Z,101950.44
2023-02-14T23:17:21.753Z,101955.19
2023-02-14T23:20:08.901Z,101949.28
2023-02-14T23:22:39.152Z,101953.84
2023-02-14T23:25:09.296Z,101956.50
2023-02-14T23:27:39.852Z,101958.28
2023-02-14T23:30:11.414Z,101955.75
2023-02-14T23:32:39.940Z,101958.91
2023-02-14T23:35:10.094Z,101961.91
2023-02-14T23:37:38.449Z,101964.69
2023-02-14T23:40:08.697Z,101958.44
2023-02-14T23:42:36.963Z,101953.00
2023-02-14T23:45:19.364Z,101947.59
2023-02-14T23:47:47.584Z,101941.47
2023-02-14T23:50:18.835Z,101949.16
2023-02-14T23:52:47.109Z,101939.66
2023-02-14T23:55:16.481Z,101943.25
2023-02-14T23:57:44.708Z,101937.25
